Skip Navigation LinksHome page > Weather > Current weather Skip Navigation Links

Current Weather

Lambert-St Louis Intl, St Louis, Mo.

For information only: do not use for flight planning or navigation.
Latest weather
Observation time Saturday, August 24, 2019 11:51 PM CDT
Local time Sunday, August 25, 2019 12:12 AM CDT
Flight conditions Visual Meteorological Conditions
Winds
Wind direction East (100°)
Wind speed 8 mph
Visibility 10 mi.
Sky condition
Ceiling 7,000 ft. broken clouds
Cloud layer broken clouds 7,000 ft.
Cloud layer overcast 16,000 ft.
Temperature 71°F
Dewpoint 57°F
Altimeter 30.09 in.Hg
Derived measurements
Relative humidity 61%
Density altitude 1414 ft.
Sea-level pressure 30.06 in.Hg
Remarks
Automated weather observing station with precipitation discriminator.
METAR KSTL 250451Z 10007KT 10SM BKN070 OVC160 22/14 A3009 RMK AO2 SLP181 T02170139

Settings

Location code

InnerDrive.Weather 4.0.6770.0 Release CLR 4.0.30319.42000
Copyright ©2018 Inner Drive Technology. All rights reserved. Portions Copyright ©1986-2018 David Braverman.

Find weather

Site navigation


Skip Navigation Links

Place info

Page info

PayPal - The safer, easier way to pay online!

Return home.

Copyright ©2019 Inner Drive Technology. Purveyors of fine, hand-crafted computer software. Page printed 2019-08-25T05:12:13 UTC.